createdAt,value
2022-12-09T00:02:36.942Z,95562.22
2022-12-09T00:05:34.185Z,95543.81
2022-12-09T00:08:31.185Z,95547.50
2022-12-09T00:11:28.394Z,95542.22
2022-12-09T00:14:25.723Z,95541.69
2022-12-09T00:17:22.699Z,95537.47
2022-12-09T00:20:19.623Z,95539.59
2022-12-09T00:23:16.730Z,95533.28
2022-12-09T00:26:15.901Z,95537.22
2022-12-09T00:29:13.317Z,95551.72
2022-12-09T00:32:10.395Z,95553.00
2022-12-09T00:35:08.079Z,95548.00
2022-12-09T00:38:05.434Z,95544.31
2022-12-09T00:41:03.364Z,95538.53
2022-12-09T00:44:00.415Z,95545.38
2022-12-09T00:46:57.644Z,95541.19
2022-12-09T00:49:54.651Z,95550.09
2022-12-09T00:52:51.717Z,95547.47
2022-12-09T00:55:49.115Z,95542.72
2022-12-09T00:58:46.290Z,95542.47
2022-12-09T01:01:43.335Z,95537.22
2022-12-09T01:04:40.383Z,95537.72
2022-12-09T01:07:40.209Z,95539.56
2022-12-09T01:10:39.281Z,95540.88
2022-12-09T01:13:36.197Z,95536.94
2022-12-09T01:16:34.895Z,95549.31
2022-12-09T01:19:31.968Z,95540.63
2022-12-09T01:22:28.914Z,95536.41
2022-12-09T01:25:25.867Z,95549.34
2022-12-09T01:28:23.157Z,95541.19
2022-12-09T01:31:24.099Z,95540.38
2022-12-09T01:34:21.190Z,95541.19
2022-12-09T01:37:18.416Z,95537.50
2022-12-09T01:40:19.062Z,95544.84
2022-12-09T01:43:20.361Z,95534.03
2022-12-09T01:46:17.283Z,95534.84
2022-12-09T01:49:32.376Z,95532.47
2022-12-09T01:52:29.326Z,95518.81
2022-12-09T01:55:27.167Z,95530.41
2022-12-09T01:58:25.217Z,95513.00
2022-12-09T02:01:22.563Z,95519.59
2022-12-09T02:04:19.803Z,95512.22
2022-12-09T02:07:19.387Z,95516.94
2022-12-09T02:10:18.100Z,95514.31
2022-12-09T02:13:18.044Z,95509.31
2022-12-09T02:16:21.402Z,95511.94
2022-12-09T02:19:51.860Z,95505.34
2022-12-09T02:23:24.314Z,95510.63
2022-12-09T02:26:37.487Z,95507.75
2022-12-09T02:29:48.915Z,95498.28
2022-12-09T02:33:13.233Z,95502.47
2022-12-09T02:36:17.568Z,95500.13
2022-12-09T02:39:14.737Z,95495.34
2022-12-09T02:42:17.527Z,95496.69
2022-12-09T02:45:16.896Z,95490.88
2022-12-09T02:48:18.492Z,95484.59
2022-12-09T02:51:19.384Z,95493.53
2022-12-09T02:54:19.579Z,95482.72
2022-12-09T02:57:23.360Z,95487.19
2022-12-09T03:00:20.749Z,95477.22
2022-12-09T03:03:19.252Z,95478.53
2022-12-09T03:06:18.533Z,95486.38
2022-12-09T03:09:31.841Z,95472.19
2022-12-09T03:12:32.739Z,95475.06
2022-12-09T03:15:35.388Z,95483.00
2022-12-09T03:18:33.891Z,95472.44
2022-12-09T03:21:35.490Z,95456.66
2022-12-09T03:24:50.943Z,95467.41
2022-12-09T03:28:00.386Z,95458.19
2022-12-09T03:31:06.178Z,95457.69
2022-12-09T03:34:06.375Z,95456.13
2022-12-09T03:37:05.621Z,95450.09
2022-12-09T03:40:11.656Z,95451.91
2022-12-09T03:43:23.028Z,95444.00
2022-12-09T03:46:22.151Z,95447.16
2022-12-09T03:49:19.553Z,95449.78
2022-12-09T03:52:32.132Z,95445.06
2022-12-09T03:55:34.779Z,95443.19
2022-12-09T03:58:35.222Z,95434.28
2022-12-09T04:01:33.020Z,95434.28
2022-12-09T04:04:30.475Z,95435.59
2022-12-09T04:07:27.523Z,95436.13
2022-12-09T04:10:24.877Z,95436.41
2022-12-09T04:13:21.731Z,95446.91
2022-12-09T04:16:18.724Z,95439.28
2022-12-09T04:19:16.202Z,95448.47
2022-12-09T04:22:13.432Z,95439.81
2022-12-09T04:25:11.023Z,95436.63
2022-12-09T04:28:08.118Z,95438.22
2022-12-09T04:31:05.225Z,95439.50
2022-12-09T04:34:08.372Z,95437.94
2022-12-09T04:37:06.486Z,95435.06
2022-12-09T04:40:06.894Z,95441.91
2022-12-09T04:43:04.633Z,95437.72
2022-12-09T04:46:05.206Z,95442.41
2022-12-09T04:49:03.165Z,95443.75
2022-12-09T04:52:00.271Z,95442.69
2022-12-09T04:54:57.148Z,95439.75
2022-12-09T04:57:54.274Z,95451.59
2022-12-09T05:00:51.591Z,95448.19
2022-12-09T05:03:51.089Z,95447.44
2022-12-09T05:06:48.239Z,95446.63
2022-12-09T05:09:45.835Z,95445.81
2022-12-09T05:12:42.792Z,95447.38
2022-12-09T05:15:40.205Z,95450.25
2022-12-09T05:18:37.643Z,95451.34
2022-12-09T05:21:35.176Z,95447.41
2022-12-09T05:24:32.855Z,95452.41
2022-12-09T05:27:29.885Z,95449.22
2022-12-09T05:30:27.137Z,95447.69
2022-12-09T05:33:24.436Z,95439.78
2022-12-09T05:36:24.756Z,95440.56
2022-12-09T05:39:23.414Z,95440.00
2022-12-09T05:42:20.555Z,95442.94
2022-12-09T05:45:17.939Z,95446.84
2022-12-09T05:48:14.943Z,95436.09
2022-12-09T05:51:18.653Z,95438.44
2022-12-09T05:54:16.456Z,95425.84
2022-12-09T05:57:13.729Z,95422.41
2022-12-09T06:00:11.952Z,95422.69
2022-12-09T06:03:09.779Z,95422.66
2022-12-09T06:06:10.496Z,95416.34
2022-12-09T06:09:11.568Z,95423.19
2022-12-09T06:12:09.550Z,95417.16
2022-12-09T06:15:10.521Z,95422.69
2022-12-09T06:18:09.011Z,95416.38
2022-12-09T06:21:13.316Z,95412.69
2022-12-09T06:24:10.580Z,95416.09
2022-12-09T06:27:07.647Z,95425.78
2022-12-09T06:30:05.281Z,95423.75
2022-12-09T06:33:02.712Z,95421.88
2022-12-09T06:36:05.350Z,95424.75
2022-12-09T06:39:09.947Z,95425.56
2022-12-09T06:42:08.419Z,95430.53
2022-12-09T06:45:06.667Z,95439.16
2022-12-09T06:48:05.477Z,95433.13
2022-12-09T06:51:02.574Z,95429.44
2022-12-09T06:53:59.825Z,95426.56
2022-12-09T06:56:57.018Z,95418.41
2022-12-09T06:59:54.445Z,95414.19
2022-12-09T07:02:52.579Z,95410.53
2022-12-09T07:05:49.988Z,95418.91
2022-12-09T07:08:47.113Z,95425.66
2022-12-09T07:11:47.073Z,95427.78
2022-12-09T07:14:44.528Z,95424.66
2022-12-09T07:17:42.198Z,95423.03
2022-12-09T07:20:39.106Z,95412.53
2022-12-09T07:23:37.238Z,95418.34
2022-12-09T07:26:35.169Z,95425.16
2022-12-09T07:29:33.633Z,95420.38
2022-12-09T07:32:30.776Z,95426.16
2022-12-09T07:35:27.830Z,95421.91
2022-12-09T07:38:26.456Z,95421.66
2022-12-09T07:41:25.138Z,95419.31
2022-12-09T07:44:23.472Z,95415.34
2022-12-09T07:47:20.582Z,95431.59
2022-12-09T07:50:17.784Z,95419.50
2022-12-09T07:53:14.892Z,95426.13
2022-12-09T07:56:14.934Z,95428.16
2022-12-09T07:59:14.683Z,95424.53
2022-12-09T08:02:11.922Z,95430.53
2022-12-09T08:05:09.484Z,95437.41
2022-12-09T08:08:07.516Z,95427.16
2022-12-09T08:11:09.645Z,95423.50
2022-12-09T08:14:12.661Z,95419.31
2022-12-09T08:17:10.447Z,95420.59
2022-12-09T08:20:08.736Z,95421.97
2022-12-09T08:23:09.663Z,95414.16
2022-12-09T08:26:07.571Z,95408.09
2022-12-09T08:29:11.996Z,95399.44
2022-12-09T08:32:09.629Z,95409.44
2022-12-09T08:35:07.572Z,95409.34
2022-12-09T08:38:05.998Z,95405.16
2022-12-09T08:41:35.895Z,95404.09
2022-12-09T08:44:33.579Z,95403.31
2022-12-09T08:47:30.586Z,95404.44
2022-12-09T08:50:28.317Z,95408.34
2022-12-09T08:53:25.771Z,95403.88
2022-12-09T08:56:23.116Z,95400.78
2022-12-09T08:59:20.864Z,95394.97
2022-12-09T09:02:18.218Z,95394.19
2022-12-09T09:05:15.620Z,95391.66
2022-12-09T09:08:12.778Z,95386.66
2022-12-09T09:11:20.239Z,95372.47
2022-12-09T09:14:17.662Z,95381.09
2022-12-09T09:17:15.265Z,95378.25
2022-12-09T09:20:13.550Z,95374.81
2022-12-09T09:23:11.288Z,95370.06
2022-12-09T09:26:14.618Z,95368.50
2022-12-09T09:29:14.417Z,95370.09
2022-12-09T09:32:12.565Z,95375.34
2022-12-09T09:35:10.212Z,95359.06
2022-12-09T09:38:07.534Z,95363.78
2022-12-09T09:41:47.311Z,95350.63
2022-12-09T09:44:52.088Z,95348.53
2022-12-09T09:47:59.443Z,95349.84
2022-12-09T09:51:16.460Z,95348.81
2022-12-09T09:54:14.831Z,95344.88
2022-12-09T09:57:24.849Z,95338.53
2022-12-09T10:00:31.140Z,95338.28
2022-12-09T10:03:47.539Z,95329.59
2022-12-09T10:07:07.113Z,95327.75
2022-12-09T10:10:17.200Z,95328.03
2022-12-09T10:13:29.437Z,95317.25
2022-12-09T10:17:15.575Z,95320.13
2022-12-09T10:20:23.663Z,95317.47
2022-12-09T10:23:23.461Z,95309.34
2022-12-09T10:26:27.352Z,95307.22
2022-12-09T10:29:59.332Z,95299.56
2022-12-09T10:33:05.647Z,95297.19
2022-12-09T10:36:04.225Z,95301.09
2022-12-09T10:39:03.104Z,95296.06
2022-12-09T10:42:19.566Z,95294.56
2022-12-09T10:45:17.019Z,95292.19
2022-12-09T10:48:36.673Z,95288.41
2022-12-09T10:51:39.130Z,95295.28
2022-12-09T10:54:44.891Z,95292.66
2022-12-09T10:57:42.657Z,95297.53
2022-12-09T11:00:39.670Z,95297.00
2022-12-09T11:03:56.160Z,95293.81
2022-12-09T11:07:15.749Z,95288.75
2022-12-09T11:10:25.749Z,95287.91
2022-12-09T11:13:35.098Z,95290.25
2022-12-09T11:16:32.313Z,95280.75
2022-12-09T11:19:36.029Z,95275.69
2022-12-09T11:22:41.220Z,95279.72
2022-12-09T11:25:39.200Z,95274.38
2022-12-09T11:28:39.365Z,95274.09
2022-12-09T11:31:40.838Z,95267.25
2022-12-09T11:34:37.977Z,95270.88
2022-12-09T11:37:39.304Z,95269.81
2022-12-09T11:40:36.178Z,95275.16
2022-12-09T11:43:48.764Z,95275.25
2022-12-09T11:46:46.274Z,95267.81
2022-12-09T11:49:56.280Z,95278.72
2022-12-09T11:53:19.447Z,95272.38
2022-12-09T11:56:22.885Z,95271.88
2022-12-09T11:59:26.581Z,95276.84
2022-12-09T12:02:42.441Z,95264.25
2022-12-09T12:05:48.325Z,95258.13
2022-12-09T12:08:56.436Z,95255.72
2022-12-09T12:12:29.283Z,95258.44
2022-12-09T12:16:04.115Z,95246.75
2022-12-09T12:19:19.276Z,95251.31
2022-12-09T12:22:55.044Z,95257.50
2022-12-09T12:26:21.946Z,95256.13
2022-12-09T12:29:49.291Z,95247.66
2022-12-09T12:37:00.805Z,95260.66
2022-12-09T12:40:26.842Z,95253.38
2022-12-09T12:43:48.763Z,95255.22
2022-12-09T12:47:09.825Z,95251.59
2022-12-09T12:50:14.653Z,95253.44
2022-12-09T12:53:49.126Z,95237.31
2022-12-09T12:57:09.501Z,95244.41
2022-12-09T13:00:13.470Z,95242.63
2022-12-09T13:04:02.009Z,95234.78
2022-12-09T13:07:33.823Z,95236.47
2022-12-09T13:10:53.654Z,95233.28
2022-12-09T13:13:57.460Z,95229.22
2022-12-09T13:16:54.679Z,95228.22
2022-12-09T13:19:57.821Z,95233.47
2022-12-09T13:23:14.679Z,95232.22
2022-12-09T13:26:58.776Z,95232.00
2022-12-09T13:30:01.600Z,95235.97
2022-12-09T13:33:25.382Z,95228.69
2022-12-09T13:36:43.052Z,95230.47
2022-12-09T13:39:39.937Z,95225.44
2022-12-09T13:42:56.102Z,95228.97
2022-12-09T13:45:59.593Z,95239.22
2022-12-09T13:48:56.971Z,95231.59
2022-12-09T13:51:55.668Z,95228.69
2022-12-09T13:54:52.613Z,95234.50
2022-12-09T13:58:23.043Z,95231.59
2022-12-09T14:01:58.166Z,95232.66
2022-12-09T14:05:28.396Z,95223.47
2022-12-09T14:08:33.372Z,95220.38
2022-12-09T14:11:47.025Z,95218.75
2022-12-09T14:14:43.788Z,95219.53
2022-12-09T14:17:40.486Z,95217.75
2022-12-09T14:20:39.595Z,95220.13
2022-12-09T14:23:36.471Z,95223.28
2022-12-09T14:26:35.969Z,95224.88
2022-12-09T14:29:58.903Z,95225.13
2022-12-09T14:32:57.181Z,95235.66
2022-12-09T14:36:12.929Z,95234.06
2022-12-09T14:39:25.217Z,95239.06
2022-12-09T14:42:57.947Z,95244.59
2022-12-09T14:46:02.185Z,95240.94
2022-12-09T14:49:13.848Z,95234.88
2022-12-09T14:52:31.063Z,95229.38
2022-12-09T14:55:30.534Z,95228.84
2022-12-09T14:58:28.041Z,95238.59
2022-12-09T15:01:24.983Z,95236.75
2022-12-09T15:04:33.713Z,95239.94
2022-12-09T15:07:33.599Z,95228.59
2022-12-09T15:10:36.426Z,95228.34
2022-12-09T15:13:37.746Z,95231.47
2022-12-09T15:16:34.661Z,95237.31
2022-12-09T15:19:59.084Z,95244.13
2022-12-09T15:23:12.768Z,95233.84
2022-12-09T15:26:32.391Z,95227.81
2022-12-09T15:29:32.529Z,95228.09
2022-12-09T15:32:30.572Z,95233.59
2022-12-09T15:35:32.425Z,95234.84
2022-12-09T15:38:40.752Z,95235.72
2022-12-09T15:42:05.959Z,95230.09
2022-12-09T15:45:29.471Z,95241.75
2022-12-09T15:48:38.837Z,95242.03
2022-12-09T15:51:39.756Z,95242.47
2022-12-09T15:54:41.267Z,95243.25
2022-12-09T15:57:39.498Z,95245.91
2022-12-09T16:00:49.203Z,95248.34
2022-12-09T16:03:51.362Z,95242.28
2022-12-09T16:06:50.318Z,95249.66
2022-12-09T16:10:12.506Z,95249.16
2022-12-09T16:13:16.230Z,95262.03
2022-12-09T16:16:51.808Z,95263.59
2022-12-09T16:19:48.880Z,95272.00
2022-12-09T16:22:50.236Z,95252.47
2022-12-09T16:25:49.978Z,95252.03
2022-12-09T16:28:56.699Z,95254.91
2022-12-09T16:32:21.343Z,95254.94
2022-12-09T16:35:22.878Z,95250.72
2022-12-09T16:38:20.370Z,95258.34
2022-12-09T16:41:17.399Z,95251.50
2022-12-09T16:44:34.111Z,95259.13
2022-12-09T16:47:32.886Z,95253.34
2022-12-09T16:50:36.818Z,95248.88
2022-12-09T16:53:54.376Z,95240.97
2022-12-09T16:56:51.962Z,95240.72
2022-12-09T16:59:48.865Z,95245.22
2022-12-09T17:02:58.392Z,95242.53
2022-12-09T17:05:55.247Z,95230.75
2022-12-09T17:08:52.587Z,95232.59
2022-12-09T17:11:49.692Z,95236.28
2022-12-09T17:14:46.715Z,95233.91
2022-12-09T17:17:48.919Z,95234.19
2022-12-09T17:20:46.113Z,95232.09
2022-12-09T17:23:43.670Z,95241.56
2022-12-09T17:26:40.522Z,95237.31
2022-12-09T17:29:37.504Z,95248.63
2022-12-09T17:32:34.348Z,95261.25
2022-12-09T17:35:33.808Z,95264.94
2022-12-09T17:38:30.747Z,95274.66
2022-12-09T17:41:27.588Z,95264.94
2022-12-09T17:44:25.038Z,95270.44
2022-12-09T17:47:22.093Z,95272.31
2022-12-09T17:50:19.107Z,95264.69
2022-12-09T17:53:16.052Z,95278.09
2022-12-09T17:56:20.961Z,95283.34
2022-12-09T17:59:18.076Z,95284.13
2022-12-09T18:02:14.920Z,95280.97
2022-12-09T18:05:11.865Z,95289.91
2022-12-09T18:08:08.863Z,95294.63
2022-12-09T18:11:10.898Z,95298.31
2022-12-09T18:14:10.006Z,95284.09
2022-12-09T18:17:07.221Z,95289.34
2022-12-09T18:20:05.530Z,95290.13
2022-12-09T18:23:02.908Z,95287.25
2022-12-09T18:26:00.300Z,95290.41
2022-12-09T18:28:57.839Z,95291.47
2022-12-09T18:31:56.811Z,95283.06
2022-12-09T18:34:54.740Z,95284.38
2022-12-09T18:37:51.879Z,95291.16
2022-12-09T18:41:04.016Z,95294.34
2022-12-09T18:44:04.786Z,95286.75
2022-12-09T18:47:01.644Z,95300.38
2022-12-09T18:49:58.522Z,95290.41
2022-12-09T18:52:55.354Z,95301.69
2022-12-09T18:55:52.318Z,95292.50
2022-12-09T18:59:05.946Z,95290.66
2022-12-09T19:02:03.709Z,95302.19
2022-12-09T19:05:01.470Z,95291.16
2022-12-09T19:07:58.365Z,95291.94
2022-12-09T19:10:55.733Z,95303.78
2022-12-09T19:13:54.020Z,95307.72
2022-12-09T19:16:52.633Z,95306.13
2022-12-09T19:19:49.692Z,95295.09
2022-12-09T19:22:46.679Z,95294.28
2022-12-09T19:25:43.648Z,95299.03
2022-12-09T19:28:47.970Z,95293.50
2022-12-09T19:31:48.675Z,95297.47
2022-12-09T19:34:45.603Z,95304.56
2022-12-09T19:37:42.508Z,95307.19
2022-12-09T19:40:39.380Z,95313.50
2022-12-09T19:43:36.670Z,95310.63
2022-12-09T19:46:34.993Z,95306.91
2022-12-09T19:49:32.268Z,95307.19
2022-12-09T19:52:29.155Z,95306.16
2022-12-09T19:55:26.000Z,95306.41
2022-12-09T19:58:23.950Z,95311.41
2022-12-09T20:01:25.211Z,95306.41
2022-12-09T20:07:41.473Z,95294.59
2022-12-09T20:10:47.283Z,95309.03
2022-12-09T20:13:44.945Z,95312.72
2022-12-09T20:16:42.141Z,95307.47
2022-12-09T20:19:39.073Z,95314.56
2022-12-09T20:22:35.996Z,95312.47
2022-12-09T20:25:36.449Z,95311.94
2022-12-09T20:28:34.121Z,95310.56
2022-12-09T20:31:34.241Z,95314.50
2022-12-09T20:34:31.200Z,95327.13
2022-12-09T20:37:30.428Z,95322.94
2022-12-09T20:40:27.346Z,95320.81
2022-12-09T20:43:24.288Z,95323.69
2022-12-09T20:46:26.156Z,95329.19
2022-12-09T20:49:26.652Z,95326.56
2022-12-09T20:52:24.610Z,95334.47
2022-12-09T20:55:21.508Z,95327.91
2022-12-09T20:58:18.363Z,95328.66
2022-12-09T21:01:19.629Z,95328.13
2022-12-09T21:04:18.092Z,95335.75
2022-12-09T21:07:15.026Z,95332.88
2022-12-09T21:10:12.048Z,95330.22
2022-12-09T21:13:08.945Z,95328.91
2022-12-09T21:16:20.257Z,95327.28
2022-12-09T21:19:24.375Z,95329.16
2022-12-09T21:22:21.319Z,95330.97
2022-12-09T21:25:18.278Z,95338.06
2022-12-09T21:28:15.491Z,95339.34
2022-12-09T21:31:22.838Z,95341.38
2022-12-09T21:34:20.568Z,95330.56
2022-12-09T21:37:17.722Z,95333.88
2022-12-09T21:40:14.607Z,95343.19
2022-12-09T21:43:11.503Z,95337.91
2022-12-09T21:46:16.227Z,95352.06
2022-12-09T21:49:13.513Z,95353.84
2022-12-09T21:52:10.920Z,95350.72
2022-12-09T21:55:08.277Z,95348.09
2022-12-09T21:58:05.167Z,95349.38
2022-12-09T22:01:10.839Z,95360.09
2022-12-09T22:04:12.721Z,95354.63
2022-12-09T22:07:09.620Z,95350.66
2022-12-09T22:10:07.835Z,95348.28
2022-12-09T22:13:05.134Z,95357.75
2022-12-09T22:16:20.599Z,95355.13
2022-12-09T22:19:21.103Z,95351.19
2022-12-09T22:22:17.953Z,95349.06
2022-12-09T22:25:14.922Z,95365.66
2022-12-09T22:28:11.820Z,95350.44
2022-12-09T22:31:15.177Z,95353.84
2022-12-09T22:34:20.087Z,95353.84
2022-12-09T22:37:42.437Z,95356.00
2022-12-09T22:40:36.089Z,95360.22
2022-12-09T22:43:37.914Z,95367.34
2022-12-09T22:46:35.282Z,95362.09
2022-12-09T22:49:32.194Z,95354.00
2022-12-09T22:52:29.122Z,95356.38
2022-12-09T22:55:25.981Z,95363.19
2022-12-09T22:58:22.888Z,95370.63
2022-12-09T23:01:26.454Z,95363.28
2022-12-09T23:04:23.440Z,95367.19
2022-12-09T23:07:20.288Z,95378.19
2022-12-09T23:10:17.210Z,95376.91
2022-12-09T23:13:14.070Z,95370.06
2022-12-09T23:16:19.202Z,95368.78
2022-12-09T23:19:16.140Z,95375.56
2022-12-09T23:22:13.022Z,95375.88
2022-12-09T23:25:10.345Z,95366.16
2022-12-09T23:28:07.396Z,95367.25
2022-12-09T23:31:06.554Z,95374.34
2022-12-09T23:34:05.932Z,95373.28
2022-12-09T23:37:03.379Z,95377.50
2022-12-09T23:40:00.273Z,95372.50
2022-12-09T23:42:57.128Z,95370.72
2022-12-09T23:45:54.008Z,95375.69
2022-12-09T23:48:52.275Z,95373.34
2022-12-09T23:51:49.171Z,95375.44
2022-12-09T23:54:46.045Z,95375.88
2022-12-09T23:57:42.887Z,95379.28
